createdAt,value
2023-12-08T00:01:34.830Z,100583.45
2023-12-08T00:04:41.444Z,100575.45
2023-12-08T00:07:47.875Z,100574.51
2023-12-08T00:10:53.783Z,100576.88
2023-12-08T00:13:59.543Z,100578.43
2023-12-08T00:17:06.077Z,100556.19
2023-12-08T00:20:13.132Z,100573.39
2023-12-08T00:23:19.729Z,100575.73
2023-12-08T00:26:27.161Z,100569.12
2023-12-08T00:29:33.992Z,100575.16
2023-12-08T00:32:40.602Z,100565.61
2023-12-08T00:35:46.763Z,100575.84
2023-12-08T00:38:52.899Z,100560.52
2023-12-08T00:41:59.431Z,100564.05
2023-12-08T00:45:05.648Z,100562.58
2023-12-08T00:48:12.364Z,100562.37
2023-12-08T00:51:18.733Z,100551.15
2023-12-08T00:54:24.592Z,100556.81
2023-12-08T00:57:33.012Z,100563.09
2023-12-08T01:00:39.740Z,100558.23
2023-12-08T01:03:46.249Z,100544.38
2023-12-08T01:06:51.844Z,100537.83
2023-12-08T01:09:58.472Z,100546.03
2023-12-08T01:13:06.906Z,100544.58
2023-12-08T01:16:15.179Z,100529.33
2023-12-08T01:19:21.969Z,100559.25
2023-12-08T01:22:31.992Z,100548.94
2023-12-08T01:25:37.916Z,100543.95
2023-12-08T01:28:43.051Z,100541.75
2023-12-08T01:31:47.806Z,100559.80
2023-12-08T01:34:53.578Z,100544.88
2023-12-08T01:37:59.944Z,100545.60
2023-12-08T01:41:05.308Z,100545.36
2023-12-08T01:44:10.874Z,100550.89
2023-12-08T01:47:17.094Z,100549.16
2023-12-08T01:50:23.056Z,100539.26
2023-12-08T01:53:29.355Z,100546.58
2023-12-08T01:56:35.731Z,100553.32
2023-12-08T01:59:42.230Z,100546.09
2023-12-08T02:02:48.822Z,100554.40
2023-12-08T02:05:59.566Z,100551.70
2023-12-08T02:09:07.025Z,100563.61
2023-12-08T02:12:06.762Z,100551.69
2023-12-08T02:15:13.862Z,100562.56
2023-12-08T02:18:20.113Z,100561.27
2023-12-08T02:21:26.865Z,100562.98
2023-12-08T02:24:32.832Z,100553.20
2023-12-08T02:27:39.251Z,100556.81
2023-12-08T02:30:45.627Z,100557.14
2023-12-08T02:33:50.585Z,100556.89
2023-12-08T02:36:55.672Z,100559.58
2023-12-08T02:40:01.717Z,100551.27
2023-12-08T02:43:09.704Z,100554.81
2023-12-08T02:46:16.026Z,100558.60
2023-12-08T02:49:22.633Z,100564.65
2023-12-08T02:52:22.236Z,100549.59
2023-12-08T02:55:08.746Z,100558.95
2023-12-08T02:58:01.568Z,100549.15
2023-12-08T03:00:53.958Z,100553.59
2023-12-08T03:04:01.234Z,100551.71
2023-12-08T03:07:08.712Z,100555.27
2023-12-08T03:10:16.218Z,100550.86
2023-12-08T03:13:22.481Z,100541.26
2023-12-08T03:16:30.768Z,100553.55
2023-12-08T03:23:31.697Z,100548.42
2023-12-08T03:26:38.980Z,100563.00
2023-12-08T03:29:50.576Z,100547.44
2023-12-08T03:33:01.217Z,100544.64
2023-12-08T03:36:11.471Z,100541.90
2023-12-08T03:39:20.048Z,100550.86
2023-12-08T03:42:21.311Z,100555.55
2023-12-08T03:45:31.703Z,100548.06
2023-12-08T03:48:53.461Z,100559.50
2023-12-08T03:52:33.269Z,100548.55
2023-12-08T03:55:41.185Z,100558.79
2023-12-08T03:58:47.612Z,100549.94
2023-12-08T04:01:54.012Z,100559.00
2023-12-08T04:04:59.595Z,100559.50
2023-12-08T04:08:06.204Z,100552.73
2023-12-08T04:11:12.432Z,100552.52
2023-12-08T04:14:17.812Z,100565.66
2023-12-08T04:17:23.789Z,100547.57
2023-12-08T04:20:31.163Z,100568.09
2023-12-08T04:23:37.070Z,100567.50
2023-12-08T04:26:43.064Z,100556.80
2023-12-08T04:29:49.985Z,100567.50
2023-12-08T04:32:56.474Z,100574.00
2023-12-08T04:36:02.938Z,100571.79
2023-12-08T04:39:09.276Z,100568.36
2023-12-08T04:42:17.492Z,100572.16
2023-12-08T04:45:24.400Z,100565.66
2023-12-08T04:48:31.229Z,100570.67
2023-12-08T04:51:37.627Z,100574.48
2023-12-08T04:54:42.057Z,100569.55
2023-12-08T04:57:47.926Z,100557.29
2023-12-08T05:00:54.536Z,100558.27
2023-12-08T05:04:00.749Z,100558.77
2023-12-08T05:07:07.230Z,100565.42
2023-12-08T05:10:13.847Z,100556.55
2023-12-08T05:13:20.655Z,100549.92
2023-12-08T05:16:27.141Z,100550.77
2023-12-08T05:19:33.946Z,100561.98
2023-12-08T05:22:40.322Z,100568.13
2023-12-08T05:25:47.166Z,100567.13
2023-12-08T05:28:54.111Z,100556.04
2023-12-08T05:32:00.095Z,100557.68
2023-12-08T05:35:07.059Z,100551.89
2023-12-08T05:38:13.880Z,100558.91
2023-12-08T05:41:21.010Z,100561.84
2023-12-08T05:44:26.867Z,100553.96
2023-12-08T05:47:32.695Z,100559.39
2023-12-08T05:50:39.051Z,100553.13
2023-12-08T05:53:45.988Z,100562.09
2023-12-08T05:56:52.883Z,100570.08
2023-12-08T05:59:59.661Z,100570.33
2023-12-08T06:03:06.794Z,100578.44
2023-12-08T06:06:14.253Z,100579.80
2023-12-08T06:09:21.971Z,100587.27
2023-12-08T06:12:22.592Z,100591.23
2023-12-08T06:15:22.296Z,100592.91
2023-12-08T06:18:29.394Z,100595.39
2023-12-08T06:21:36.127Z,100588.39
2023-12-08T06:24:42.662Z,100585.69
2023-12-08T06:27:49.428Z,100593.91
2023-12-08T06:30:55.258Z,100582.85
2023-12-08T06:34:09.802Z,100589.61
2023-12-08T06:37:09.563Z,100577.33
2023-12-08T06:40:15.932Z,100581.97
2023-12-08T06:43:22.757Z,100575.30
2023-12-08T06:46:28.864Z,100581.34
2023-12-08T06:49:35.477Z,100570.13
2023-12-08T06:52:42.213Z,100562.78
2023-12-08T06:55:49.027Z,100568.55
2023-12-08T06:58:56.266Z,100574.59
2023-12-08T07:02:03.812Z,100579.49
2023-12-08T07:05:12.792Z,100575.34
2023-12-08T07:08:18.537Z,100574.59
2023-12-08T07:11:25.783Z,100564.67
2023-12-08T07:14:32.788Z,100571.03
2023-12-08T07:17:39.797Z,100562.83
2023-12-08T07:20:46.011Z,100559.27
2023-12-08T07:23:55.696Z,100563.68
2023-12-08T07:27:03.254Z,100571.30
2023-12-08T07:30:12.644Z,100582.37
2023-12-08T07:33:19.328Z,100584.81
2023-12-08T07:36:19.944Z,100592.91
2023-12-08T07:39:14.703Z,100591.83
2023-12-08T07:42:20.388Z,100595.62
2023-12-08T07:45:27.886Z,100594.66
2023-12-08T07:48:34.731Z,100606.42
2023-12-08T07:51:41.843Z,100604.09
2023-12-08T07:54:48.243Z,100585.30
2023-12-08T07:57:54.688Z,100581.74
2023-12-08T08:01:01.680Z,100590.34
2023-12-08T08:04:08.159Z,100603.95
2023-12-08T08:07:15.351Z,100587.14
2023-12-08T08:10:22.904Z,100588.98
2023-12-08T08:13:29.743Z,100576.70
2023-12-08T08:16:36.350Z,100591.56
2023-12-08T08:19:43.554Z,100596.70
2023-12-08T08:22:50.827Z,100577.55
2023-12-08T08:25:59.771Z,100584.83
2023-12-08T08:29:06.537Z,100575.11
2023-12-08T08:32:13.878Z,100575.34
2023-12-08T08:35:23.479Z,100572.18
2023-12-08T08:38:31.916Z,100575.23
2023-12-08T08:41:39.602Z,100570.93
2023-12-08T08:44:46.046Z,100573.88
2023-12-08T08:47:53.052Z,100560.21
2023-12-08T08:51:02.583Z,100564.78
2023-12-08T08:54:10.539Z,100553.13
2023-12-08T08:57:16.902Z,100549.80
2023-12-08T09:00:26.710Z,100544.75
2023-12-08T09:03:33.440Z,100541.09
2023-12-08T09:06:40.537Z,100537.41
2023-12-08T09:16:44.286Z,100524.86
2023-12-08T09:23:16.608Z,100520.94
2023-12-08T09:26:31.660Z,100522.64
2023-12-08T09:44:36.032Z,100488.89
2023-12-08T09:47:56.827Z,100489.13
2023-12-08T09:55:28.519Z,100493.41
2023-12-08T10:13:50.444Z,100503.96
2023-12-08T10:17:01.522Z,100493.76
2023-12-08T10:20:37.955Z,100494.02
2023-12-08T10:23:48.506Z,100478.80
2023-12-08T10:26:55.846Z,100483.94
2023-12-08T10:33:37.710Z,100487.96
2023-12-08T10:37:44.052Z,100494.87
2023-12-08T10:45:00.727Z,100485.14
2023-12-08T10:48:30.305Z,100486.47
2023-12-08T10:51:40.837Z,100482.55
2023-12-08T10:55:06.358Z,100486.48
2023-12-08T10:58:39.043Z,100479.95
2023-12-08T11:02:03.389Z,100490.39
2023-12-08T11:05:41.831Z,100483.44
2023-12-08T11:08:59.403Z,100481.83
2023-12-08T11:12:14.620Z,100481.22
2023-12-08T11:15:26.940Z,100472.25
2023-12-08T11:18:43.401Z,100471.97
2023-12-08T11:21:55.282Z,100466.66
2023-12-08T11:25:05.667Z,100466.55
2023-12-08T11:28:35.186Z,100456.67
2023-12-08T11:32:06.830Z,100460.78
2023-12-08T11:35:27.635Z,100455.48
2023-12-08T11:38:47.570Z,100454.77
2023-12-08T11:42:03.425Z,100456.12
2023-12-08T11:45:14.115Z,100464.47
2023-12-08T11:48:27.530Z,100464.41
2023-12-08T11:51:36.077Z,100458.77
2023-12-08T11:54:45.387Z,100465.64
2023-12-08T11:57:57.881Z,100448.31
2023-12-08T12:01:05.966Z,100459.99
2023-12-08T12:04:14.633Z,100458.14
2023-12-08T12:07:27.105Z,100456.93
2023-12-08T12:10:42.722Z,100452.65
2023-12-08T12:13:50.916Z,100457.55
2023-12-08T12:16:58.193Z,100463.09
2023-12-08T12:20:08.753Z,100458.16
2023-12-08T12:23:17.423Z,100463.34
2023-12-08T12:26:26.161Z,100452.77
2023-12-08T12:29:35.914Z,100451.30
2023-12-08T12:32:42.985Z,100455.81
2023-12-08T12:35:54.330Z,100446.09
2023-12-08T12:39:00.324Z,100459.02
2023-12-08T12:42:13.876Z,100455.36
2023-12-08T12:45:21.660Z,100446.98
2023-12-08T12:48:38.547Z,100449.45
2023-12-08T12:51:53.593Z,100434.34
2023-12-08T12:54:59.097Z,100446.92
2023-12-08T12:58:06.721Z,100451.26
2023-12-08T13:01:29.074Z,100451.78
2023-12-08T13:04:44.085Z,100469.09
2023-12-08T13:07:54.433Z,100461.60
2023-12-08T13:11:04.703Z,100452.48
2023-12-08T13:14:16.527Z,100455.43
2023-12-08T13:17:36.144Z,100456.19
2023-12-08T13:20:43.161Z,100458.14
2023-12-08T13:23:50.320Z,100465.77
2023-12-08T13:26:55.842Z,100508.52
2023-12-08T13:30:04.060Z,100470.59
2023-12-08T13:33:10.781Z,100480.27
2023-12-08T13:36:41.987Z,100484.05
2023-12-08T13:40:07.579Z,100476.58
2023-12-08T13:43:15.633Z,100468.11
2023-12-08T13:46:22.729Z,100482.22
2023-12-08T13:49:28.994Z,100488.13
2023-12-08T13:52:35.421Z,100480.51
2023-12-08T13:55:42.091Z,100482.22
2023-12-08T13:58:47.517Z,100474.73
2023-12-08T14:01:53.701Z,100482.36
2023-12-08T14:05:00.330Z,100474.88
2023-12-08T14:08:07.504Z,100471.32
2023-12-08T14:11:16.418Z,100484.33
2023-12-08T14:14:22.639Z,100479.43
2023-12-08T14:17:28.814Z,100480.16
2023-12-08T14:20:34.320Z,100481.88
2023-12-08T14:23:40.155Z,100467.37
2023-12-08T14:27:25.109Z,100462.47
2023-12-08T14:30:42.386Z,100468.35
2023-12-08T14:38:14.792Z,100473.02
2023-12-08T14:41:20.841Z,100464.89
2023-12-08T14:44:27.341Z,100482.92
2023-12-08T14:47:35.046Z,100481.94
2023-12-08T14:50:41.531Z,100477.30
2023-12-08T14:53:47.587Z,100476.45
2023-12-08T14:56:59.060Z,100483.30
2023-12-08T15:00:06.014Z,100485.13
2023-12-08T15:03:13.664Z,100493.23
2023-12-08T15:06:20.575Z,100479.61
2023-12-08T15:09:26.816Z,100476.18
2023-12-08T15:12:33.335Z,100472.84
2023-12-08T15:15:45.966Z,100478.02
2023-12-08T15:18:46.545Z,100475.09
2023-12-08T15:21:56.546Z,100468.58
2023-12-08T15:25:01.390Z,100471.91
2023-12-08T15:28:06.925Z,100473.75
2023-12-08T15:31:12.763Z,100468.44
2023-12-08T15:34:19.650Z,100470.78
2023-12-08T15:37:26.093Z,100471.41
2023-12-08T15:40:32.000Z,100463.44
2023-12-08T15:43:38.824Z,100466.87
2023-12-08T15:46:46.145Z,100469.34
2023-12-08T15:49:53.376Z,100474.73
2023-12-08T15:53:00.166Z,100481.38
2023-12-08T15:56:06.443Z,100477.83
2023-12-08T15:59:13.338Z,100484.69
2023-12-08T16:02:19.930Z,100482.74
2023-12-08T16:05:25.432Z,100491.67
2023-12-08T16:09:07.363Z,100492.16
2023-12-08T16:12:16.183Z,100482.35
2023-12-08T16:15:32.394Z,100485.52
2023-12-08T16:18:39.851Z,100480.15
2023-12-08T16:21:47.122Z,100478.42
2023-12-08T16:24:59.804Z,100483.34
2023-12-08T16:28:06.010Z,100484.08
2023-12-08T16:31:12.466Z,100484.33
2023-12-08T16:34:18.724Z,100501.77
2023-12-08T16:37:24.964Z,100497.95
2023-12-08T16:40:30.627Z,100485.18
2023-12-08T16:43:37.528Z,100483.20
2023-12-08T16:46:44.318Z,100475.01
2023-12-08T16:49:50.602Z,100479.03
2023-12-08T16:52:59.075Z,100484.09
2023-12-08T16:56:05.972Z,100485.18
2023-12-08T16:59:12.177Z,100476.58
2023-12-08T17:02:19.351Z,100475.62
2023-12-08T17:05:25.598Z,100475.34
2023-12-08T17:08:31.730Z,100470.18
2023-12-08T17:11:37.957Z,100471.66
2023-12-08T17:14:44.689Z,100472.80
2023-12-08T17:17:51.729Z,100468.61
2023-12-08T17:20:58.377Z,100474.37
2023-12-08T17:24:05.240Z,100468.48
2023-12-08T17:27:11.253Z,100456.31
2023-12-08T17:30:17.165Z,100457.41
2023-12-08T17:33:23.992Z,100466.86
2023-12-08T17:36:31.007Z,100469.58
2023-12-08T17:39:36.851Z,100470.07
2023-12-08T17:42:42.942Z,100464.91
2023-12-08T17:45:49.524Z,100468.72
2023-12-08T17:48:56.046Z,100465.77
2023-12-08T17:52:03.761Z,100472.04
2023-12-08T17:55:13.803Z,100472.53
2023-12-08T17:58:20.439Z,100467.86
2023-12-08T18:01:26.580Z,100464.05
2023-12-08T18:04:33.259Z,100465.75
2023-12-08T18:07:40.511Z,100456.20
2023-12-08T18:10:47.135Z,100460.50
2023-12-08T18:13:54.072Z,100454.00
2023-12-08T18:17:00.250Z,100460.03
2023-12-08T18:20:08.215Z,100450.92
2023-12-08T18:23:21.582Z,100454.36
2023-12-08T18:26:31.632Z,100443.92
2023-12-08T18:29:37.907Z,100445.27
2023-12-08T18:32:43.499Z,100443.08
2023-12-08T18:35:49.885Z,100451.05
2023-12-08T18:38:56.011Z,100458.31
2023-12-08T18:42:03.008Z,100456.58
2023-12-08T18:45:12.856Z,100473.28
2023-12-08T18:48:20.452Z,100466.88
2023-12-08T18:51:27.849Z,100472.66
2023-12-08T18:54:35.229Z,100467.87
2023-12-08T18:57:41.034Z,100470.45
2023-12-08T19:00:48.974Z,100483.72
2023-12-08T19:03:56.204Z,100471.80
2023-12-08T19:07:02.752Z,100471.55
2023-12-08T19:10:08.973Z,100477.94
2023-12-08T19:13:14.745Z,100480.52
2023-12-08T19:16:21.295Z,100481.86
2023-12-08T19:19:28.999Z,100482.47
2023-12-08T19:22:34.411Z,100477.91
2023-12-08T19:25:41.059Z,100468.06
2023-12-08T19:28:47.623Z,100466.09
2023-12-08T19:31:54.757Z,100462.41
2023-12-08T19:35:01.068Z,100464.77
2023-12-08T19:38:06.920Z,100464.76
2023-12-08T19:41:13.322Z,100464.27
2023-12-08T19:44:18.809Z,100469.58
2023-12-08T19:47:24.483Z,100466.86
2023-12-08T19:50:31.404Z,100460.12
2023-12-08T19:53:37.333Z,100459.12
2023-12-08T19:56:44.691Z,100454.22
2023-12-08T19:59:50.991Z,100448.20
2023-12-08T20:02:58.418Z,100453.24
2023-12-08T20:06:05.606Z,100449.98
2023-12-08T20:09:11.628Z,100447.77
2023-12-08T20:12:18.496Z,100445.64
2023-12-08T20:15:28.259Z,100443.58
2023-12-08T20:18:33.046Z,100440.05
2023-12-08T20:21:39.228Z,100436.23
2023-12-08T20:24:45.245Z,100442.75
2023-12-08T20:27:53.906Z,100446.55
2023-12-08T20:30:59.829Z,100448.39
2023-12-08T20:34:07.565Z,100461.67
2023-12-08T20:37:13.789Z,100453.56
2023-12-08T20:40:22.195Z,100459.56
2023-12-08T20:43:29.825Z,100454.94
2023-12-08T20:46:36.575Z,100453.17
2023-12-08T20:49:43.007Z,100462.16
2023-12-08T20:52:49.777Z,100464.77
2023-12-08T20:55:55.471Z,100457.95
2023-12-08T20:59:01.628Z,100468.18
2023-12-08T21:02:08.105Z,100468.81
2023-12-08T21:05:16.093Z,100475.08
2023-12-08T21:08:22.296Z,100486.11
2023-12-08T21:11:29.412Z,100491.97
2023-12-08T21:14:35.526Z,100484.59
2023-12-08T21:17:42.220Z,100489.79
2023-12-08T21:20:48.442Z,100491.47
2023-12-08T21:23:54.747Z,100495.02
2023-12-08T21:27:01.218Z,100502.75
2023-12-08T21:30:07.735Z,100498.66
2023-12-08T21:33:13.933Z,100507.21
2023-12-08T21:36:21.295Z,100500.83
2023-12-08T21:39:27.680Z,100506.98
2023-12-08T21:42:34.282Z,100500.84
2023-12-08T21:45:41.362Z,100501.09
2023-12-08T21:48:51.645Z,100498.53
2023-12-08T21:51:58.439Z,100483.77
2023-12-08T21:55:03.819Z,100488.30
2023-12-08T21:58:09.662Z,100489.52
2023-12-08T22:01:15.380Z,100489.91
2023-12-08T22:04:21.568Z,100485.77
2023-12-08T22:07:28.372Z,100490.55
2023-12-08T22:10:34.846Z,100485.23
2023-12-08T22:13:40.467Z,100486.62
2023-12-08T22:16:45.928Z,100477.90
2023-12-08T22:19:52.614Z,100472.51
2023-12-08T22:23:00.046Z,100472.54
2023-12-08T22:26:08.225Z,100479.73
2023-12-08T22:29:13.734Z,100477.72
2023-12-08T22:32:20.532Z,100464.86
2023-12-08T22:35:26.229Z,100467.61
2023-12-08T22:38:32.096Z,100466.27
2023-12-08T22:41:38.523Z,100458.91
2023-12-08T22:44:44.165Z,100468.58
2023-12-08T22:47:50.589Z,100466.99
2023-12-08T22:51:04.122Z,100462.55
2023-12-08T22:54:05.255Z,100449.11
2023-12-08T22:57:11.436Z,100457.25
2023-12-08T23:00:20.410Z,100465.84
2023-12-08T23:03:26.232Z,100461.16
2023-12-08T23:06:32.419Z,100458.56
2023-12-08T23:09:39.393Z,100452.39
2023-12-08T23:12:45.105Z,100452.70
2023-12-08T23:15:51.236Z,100444.12
2023-12-08T23:18:57.550Z,100448.89
2023-12-08T23:22:04.336Z,100442.27
2023-12-08T23:25:12.061Z,100439.94
2023-12-08T23:28:18.417Z,100446.89
2023-12-08T23:31:25.040Z,100443.46
2023-12-08T23:34:32.460Z,100439.99
2023-12-08T23:37:39.400Z,100431.66
2023-12-08T23:40:46.292Z,100436.39
2023-12-08T23:43:54.190Z,100440.66
2023-12-08T23:47:00.360Z,100430.10
2023-12-08T23:50:09.009Z,100433.23
2023-12-08T23:53:14.414Z,100431.88
2023-12-08T23:56:23.736Z,100433.39
2023-12-08T23:59:29.125Z,100432.31
